sensor_id;sensor_type;location;lat;lon;timestamp;pressure;altitude;pressure_sealevel;temperature;humidity
72428;BME280;60419;48.880;18.036;2023-04-07T00:01:15;98984.44;;;1.16;75.17
72428;BME280;60419;48.880;18.036;2023-04-07T00:04:01;98982.03;;;1.59;73.42
72428;BME280;60419;48.880;18.036;2023-04-07T00:06:46;98967.41;;;1.39;72.97
72428;BME280;60419;48.880;18.036;2023-04-07T00:09:31;98978.88;;;1.40;73.64
72428;BME280;60419;48.880;18.036;2023-04-07T00:12:17;98978.47;;;1.48;72.47
72428;BME280;60419;48.880;18.036;2023-04-07T00:15:02;98975.84;;;1.31;73.61
72428;BME280;60419;48.880;18.036;2023-04-07T00:17:48;98979.88;;;1.78;72.00
72428;BME280;60419;48.880;18.036;2023-04-07T00:20:33;98972.88;;;2.21;70.17
72428;BME280;60419;48.880;18.036;2023-04-07T00:23:18;98967.84;;;1.97;70.11
72428;BME280;60419;48.880;18.036;2023-04-07T00:26:04;98956.03;;;2.20;69.29
72428;BME280;60419;48.880;18.036;2023-04-07T00:28:49;98960.66;;;1.98;69.85
72428;BME280;60419;48.880;18.036;2023-04-07T00:31:35;98967.13;;;2.34;67.50
72428;BME280;60419;48.880;18.036;2023-04-07T00:34:20;98955.56;;;2.23;67.03
72428;BME280;60419;48.880;18.036;2023-04-07T00:37:05;98960.50;;;2.74;66.25
72428;BME280;60419;48.880;18.036;2023-04-07T00:39:51;98950.91;;;2.73;66.71
72428;BME280;60419;48.880;18.036;2023-04-07T00:42:36;98940.59;;;2.49;65.82
72428;BME280;60419;48.880;18.036;2023-04-07T00:45:22;98941.91;;;2.47;65.46
72428;BME280;60419;48.880;18.036;2023-04-07T00:48:07;98943.81;;;2.57;64.90
72428;BME280;60419;48.880;18.036;2023-04-07T00:50:54;98939.72;;;2.76;64.14
72428;BME280;60419;48.880;18.036;2023-04-07T00:53:39;98933.56;;;2.38;64.90
72428;BME280;60419;48.880;18.036;2023-04-07T00:56:26;98930.38;;;2.41;64.86
72428;BME280;60419;48.880;18.036;2023-04-07T00:59:11;98932.66;;;2.60;64.42
72428;BME280;60419;48.880;18.036;2023-04-07T01:11:12;98919.34;;;2.27;66.01
72428;BME280;60419;48.880;18.036;2023-04-07T01:14:02;98917.78;;;2.04;66.89
72428;BME280;60419;48.880;18.036;2023-04-07T01:16:49;98927.25;;;2.17;66.60
72428;BME280;60419;48.880;18.036;2023-04-07T01:20:01;98923.78;;;2.17;67.02
72428;BME280;60419;48.880;18.036;2023-04-07T01:22:55;98925.75;;;2.26;67.06
72428;BME280;60419;48.880;18.036;2023-04-07T01:25:53;98929.72;;;2.24;67.82
72428;BME280;60419;48.880;18.036;2023-04-07T01:31:57;98920.81;;;1.59;71.16
72428;BME280;60419;48.880;18.036;2023-04-07T01:34:44;98926.38;;;1.13;73.53
72428;BME280;60419;48.880;18.036;2023-04-07T01:37:32;98934.91;;;1.15;73.92
72428;BME280;60419;48.880;18.036;2023-04-07T01:40:19;98936.41;;;1.50;73.93
72428;BME280;60419;48.880;18.036;2023-04-07T01:43:05;98935.41;;;1.34;74.49
72428;BME280;60419;48.880;18.036;2023-04-07T01:45:53;98934.41;;;1.18;75.68
72428;BME280;60419;48.880;18.036;2023-04-07T01:48:39;98937.50;;;1.10;76.65
72428;BME280;60419;48.880;18.036;2023-04-07T01:51:25;98926.91;;;0.93;77.98
72428;BME280;60419;48.880;18.036;2023-04-07T01:54:12;98925.66;;;0.62;79.35
72428;BME280;60419;48.880;18.036;2023-04-07T01:56:58;98925.50;;;1.08;78.39
72428;BME280;60419;48.880;18.036;2023-04-07T01:59:45;98925.81;;;0.56;80.13
72428;BME280;60419;48.880;18.036;2023-04-07T02:02:34;98929.28;;;0.39;81.95
72428;BME280;60419;48.880;18.036;2023-04-07T02:05:21;98923.16;;;0.56;81.41
72428;BME280;60419;48.880;18.036;2023-04-07T02:08:07;98920.44;;;0.67;80.34
72428;BME280;60419;48.880;18.036;2023-04-07T02:10:56;98906.91;;;0.52;80.42
72428;BME280;60419;48.880;18.036;2023-04-07T02:13:43;98916.47;;;0.70;80.99
72428;BME280;60419;48.880;18.036;2023-04-07T02:16:30;98915.66;;;0.69;80.71
72428;BME280;60419;48.880;18.036;2023-04-07T02:19:16;98898.75;;;0.75;79.77
72428;BME280;60419;48.880;18.036;2023-04-07T02:22:03;98920.75;;;0.71;80.84
72428;BME280;60419;48.880;18.036;2023-04-07T02:24:49;98917.28;;;0.37;81.87
72428;BME280;60419;48.880;18.036;2023-04-07T02:27:35;98909.94;;;0.61;81.36
72428;BME280;60419;48.880;18.036;2023-04-07T02:30:20;98908.53;;;0.36;81.68
72428;BME280;60419;48.880;18.036;2023-04-07T02:33:05;98910.44;;;0.41;82.52
72428;BME280;60419;48.880;18.036;2023-04-07T02:35:51;98904.16;;;0.30;82.56
72428;BME280;60419;48.880;18.036;2023-04-07T02:38:36;98909.72;;;0.28;82.88
72428;BME280;60419;48.880;18.036;2023-04-07T02:41:22;98905.44;;;0.78;81.56
72428;BME280;60419;48.880;18.036;2023-04-07T02:44:07;98900.31;;;0.93;80.93
72428;BME280;60419;48.880;18.036;2023-04-07T02:46:52;98906.66;;;0.70;81.49
72428;BME280;60419;48.880;18.036;2023-04-07T02:49:38;98903.53;;;0.57;82.04
72428;BME280;60419;48.880;18.036;2023-04-07T02:52:23;98903.66;;;0.67;82.56
72428;BME280;60419;48.880;18.036;2023-04-07T02:55:09;98902.34;;;0.86;81.88
72428;BME280;60419;48.880;18.036;2023-04-07T02:57:54;98896.50;;;0.17;83.12
72428;BME280;60419;48.880;18.036;2023-04-07T03:00:39;98901.75;;;0.45;83.94
72428;BME280;60419;48.880;18.036;2023-04-07T03:03:25;98880.28;;;0.86;81.55
72428;BME280;60419;48.880;18.036;2023-04-07T03:06:10;98894.75;;;0.95;80.94
72428;BME280;60419;48.880;18.036;2023-04-07T03:08:56;98900.44;;;0.65;82.63
72428;BME280;60419;48.880;18.036;2023-04-07T03:11:41;98902.91;;;1.10;81.29
72428;BME280;60419;48.880;18.036;2023-04-07T03:14:27;98887.03;;;1.37;79.93
72428;BME280;60419;48.880;18.036;2023-04-07T03:17:12;98900.75;;;0.68;81.97
72428;BME280;60419;48.880;18.036;2023-04-07T03:19:57;98902.47;;;0.58;82.69
72428;BME280;60419;48.880;18.036;2023-04-07T03:22:43;98884.38;;;0.21;83.04
72428;BME280;60419;48.880;18.036;2023-04-07T03:25:28;98897.00;;;0.64;82.96
72428;BME280;60419;48.880;18.036;2023-04-07T03:28:14;98895.72;;;0.89;81.62
72428;BME280;60419;48.880;18.036;2023-04-07T03:30:59;98895.28;;;1.14;80.56
72428;BME280;60419;48.880;18.036;2023-04-07T03:33:45;98887.88;;;1.21;80.51
72428;BME280;60419;48.880;18.036;2023-04-07T03:36:30;98891.41;;;1.27;80.37
72428;BME280;60419;48.880;18.036;2023-04-07T03:39:16;98891.84;;;1.18;80.83
72428;BME280;60419;48.880;18.036;2023-04-07T03:42:01;98880.41;;;1.18;79.49
72428;BME280;60419;48.880;18.036;2023-04-07T03:44:47;98889.06;;;1.08;80.11
72428;BME280;60419;48.880;18.036;2023-04-07T03:47:33;98891.50;;;0.71;81.64
72428;BME280;60419;48.880;18.036;2023-04-07T03:50:18;98891.00;;;1.35;80.35
72428;BME280;60419;48.880;18.036;2023-04-07T03:53:04;98885.66;;;1.35;79.50
72428;BME280;60419;48.880;18.036;2023-04-07T03:55:49;98897.53;;;1.05;79.99
72428;BME280;60419;48.880;18.036;2023-04-07T03:58:35;98886.34;;;1.03;80.34
72428;BME280;60419;48.880;18.036;2023-04-07T04:01:21;98886.13;;;0.49;82.58
72428;BME280;60419;48.880;18.036;2023-04-07T04:04:06;98885.72;;;1.18;80.86
72428;BME280;60419;48.880;18.036;2023-04-07T04:06:52;98893.22;;;1.21;80.25
72428;BME280;60419;48.880;18.036;2023-04-07T04:09:37;98876.09;;;0.73;81.12
72428;BME280;60419;48.880;18.036;2023-04-07T04:12:23;98891.78;;;0.74;82.30
72428;BME280;60419;48.880;18.036;2023-04-07T04:15:08;98891.63;;;0.81;82.32
72428;BME280;60419;48.880;18.036;2023-04-07T04:17:54;98887.03;;;1.37;80.18
72428;BME280;60419;48.880;18.036;2023-04-07T04:20:39;98860.78;;;1.24;78.78
72428;BME280;60419;48.880;18.036;2023-04-07T04:23:25;98893.56;;;1.52;78.41
72428;BME280;60419;48.880;18.036;2023-04-07T04:26:10;98893.22;;;1.70;77.65
72428;BME280;60419;48.880;18.036;2023-04-07T04:28:56;98892.66;;;2.22;75.87
72428;BME280;60419;48.880;18.036;2023-04-07T04:31:41;98908.31;;;2.51;74.74
72428;BME280;60419;48.880;18.036;2023-04-07T04:34:26;98911.47;;;2.85;73.89
72428;BME280;60419;48.880;18.036;2023-04-07T04:37:12;98908.00;;;2.85;73.83
72428;BME280;60419;48.880;18.036;2023-04-07T04:39:57;98916.75;;;2.75;73.58
72428;BME280;60419;48.880;18.036;2023-04-07T04:42:42;98900.28;;;2.46;74.47
72428;BME280;60419;48.880;18.036;2023-04-07T04:45:28;98914.16;;;2.48;74.26
72428;BME280;60419;48.880;18.036;2023-04-07T04:48:13;98912.13;;;3.03;73.31
72428;BME280;60419;48.880;18.036;2023-04-07T04:50:59;98914.47;;;2.89;73.26
72428;BME280;60419;48.880;18.036;2023-04-07T04:53:44;98915.06;;;3.06;73.36
72428;BME280;60419;48.880;18.036;2023-04-07T04:56:30;98915.38;;;2.67;73.95
72428;BME280;60419;48.880;18.036;2023-04-07T04:59:15;98901.63;;;2.86;73.40
72428;BME280;60419;48.880;18.036;2023-04-07T05:02:00;98903.47;;;2.85;73.70
72428;BME280;60419;48.880;18.036;2023-04-07T05:04:46;98902.66;;;2.80;74.07
72428;BME280;60419;48.880;18.036;2023-04-07T05:07:31;98890.84;;;3.18;73.32
72428;BME280;60419;48.880;18.036;2023-04-07T05:10:18;98901.81;;;2.74;74.24
72428;BME280;60419;48.880;18.036;2023-04-07T05:13:03;98905.69;;;2.19;76.48
72428;BME280;60419;48.880;18.036;2023-04-07T05:15:49;98900.41;;;2.61;75.14
72428;BME280;60419;48.880;18.036;2023-04-07T05:18:34;98904.91;;;3.03;73.55
72428;BME280;60419;48.880;18.036;2023-04-07T05:21:19;98912.31;;;2.91;73.52
72428;BME280;60419;48.880;18.036;2023-04-07T05:24:06;98903.47;;;3.33;73.15
72428;BME280;60419;48.880;18.036;2023-04-07T05:26:51;98902.00;;;3.05;73.13
72428;BME280;60419;48.880;18.036;2023-04-07T05:29:37;98905.50;;;3.10;73.04
72428;BME280;60419;48.880;18.036;2023-04-07T05:32:22;98905.41;;;2.95;73.88
72428;BME280;60419;48.880;18.036;2023-04-07T05:35:08;98910.88;;;3.21;73.32
72428;BME280;60419;48.880;18.036;2023-04-07T05:37:53;98903.63;;;3.11;73.55
72428;BME280;60419;48.880;18.036;2023-04-07T05:40:39;98905.47;;;3.05;72.25
72428;BME280;60419;48.880;18.036;2023-04-07T05:43:25;98912.53;;;3.32;71.74
72428;BME280;60419;48.880;18.036;2023-04-07T05:46:10;98911.94;;;3.25;70.78
72428;BME280;60419;48.880;18.036;2023-04-07T05:48:56;98915.44;;;2.40;73.11
72428;BME280;60419;48.880;18.036;2023-04-07T05:51:41;98903.25;;;1.85;75.11
72428;BME280;60419;48.880;18.036;2023-04-07T05:54:26;98918.25;;;1.47;75.68
72428;BME280;60419;48.880;18.036;2023-04-07T05:57:12;98915.00;;;1.40;76.06
72428;BME280;60419;48.880;18.036;2023-04-07T05:59:57;98903.41;;;1.51;75.68
72428;BME280;60419;48.880;18.036;2023-04-07T06:02:43;98901.91;;;0.94;77.28
72428;BME280;60419;48.880;18.036;2023-04-07T06:05:28;98913.97;;;1.19;77.99
72428;BME280;60419;48.880;18.036;2023-04-07T06:08:13;98920.22;;;0.91;79.10
72428;BME280;60419;48.880;18.036;2023-04-07T06:10:59;98914.56;;;0.87;79.71
72428;BME280;60419;48.880;18.036;2023-04-07T06:13:45;98919.47;;;0.95;80.19
72428;BME280;60419;48.880;18.036;2023-04-07T06:16:31;98922.19;;;0.79;80.80
72428;BME280;60419;48.880;18.036;2023-04-07T06:19:16;98917.81;;;0.89;81.01
72428;BME280;60419;48.880;18.036;2023-04-07T06:22:02;98926.16;;;0.42;81.97
72428;BME280;60419;48.880;18.036;2023-04-07T06:24:47;98924.69;;;0.85;81.04
72428;BME280;60419;48.880;18.036;2023-04-07T06:27:33;98919.00;;;0.60;81.51
72428;BME280;60419;48.880;18.036;2023-04-07T06:30:18;98920.97;;;1.08;80.83
72428;BME280;60419;48.880;18.036;2023-04-07T06:33:03;98910.56;;;0.85;80.42
72428;BME280;60419;48.880;18.036;2023-04-07T06:35:49;98910.16;;;1.15;79.64
72428;BME280;60419;48.880;18.036;2023-04-07T06:38:34;98909.44;;;1.19;78.56
72428;BME280;60419;48.880;18.036;2023-04-07T06:41:20;98913.97;;;0.80;80.39
72428;BME280;60419;48.880;18.036;2023-04-07T06:44:05;98907.75;;;1.13;79.18
72428;BME280;60419;48.880;18.036;2023-04-07T06:46:51;98909.38;;;0.75;79.76
72428;BME280;60419;48.880;18.036;2023-04-07T06:49:37;98912.47;;;0.67;81.32
72428;BME280;60419;48.880;18.036;2023-04-07T06:52:22;98915.91;;;1.07;79.90
72428;BME280;60419;48.880;18.036;2023-04-07T06:55:08;98919.59;;;0.84;80.93
72428;BME280;60419;48.880;18.036;2023-04-07T06:57:53;98913.56;;;0.71;81.23
72428;BME280;60419;48.880;18.036;2023-04-07T07:00:39;98920.34;;;0.62;81.44
72428;BME280;60419;48.880;18.036;2023-04-07T07:03:25;98919.03;;;0.82;80.94
72428;BME280;60419;48.880;18.036;2023-04-07T07:06:11;98920.59;;;0.78;82.35
72428;BME280;60419;48.880;18.036;2023-04-07T07:08:57;98919.78;;;0.43;82.71
72428;BME280;60419;48.880;18.036;2023-04-07T07:11:43;98920.44;;;1.06;81.45
72428;BME280;60419;48.880;18.036;2023-04-07T07:14:29;98924.75;;;0.90;81.90
72428;BME280;60419;48.880;18.036;2023-04-07T07:17:14;98927.38;;;0.51;82.31
72428;BME280;60419;48.880;18.036;2023-04-07T07:19:59;98930.31;;;0.89;82.43
72428;BME280;60419;48.880;18.036;2023-04-07T07:22:45;98934.41;;;1.18;82.17
72428;BME280;60419;48.880;18.036;2023-04-07T07:25:30;98932.38;;;1.26;82.00
72428;BME280;60419;48.880;18.036;2023-04-07T07:28:16;98946.75;;;0.86;82.84
72428;BME280;60419;48.880;18.036;2023-04-07T07:31:10;98949.50;;;1.13;81.44
72428;BME280;60419;48.880;18.036;2023-04-07T07:33:57;98942.38;;;1.35;80.91
72428;BME280;60419;48.880;18.036;2023-04-07T07:36:42;98953.56;;;2.73;86.03
72428;BME280;60419;48.880;18.036;2023-04-07T07:39:28;98950.53;;;1.51;79.90
72428;BME280;60419;48.880;18.036;2023-04-07T07:42:14;98958.75;;;1.49;79.57
72428;BME280;60419;48.880;18.036;2023-04-07T07:44:59;98951.31;;;1.73;78.91
72428;BME280;60419;48.880;18.036;2023-04-07T07:47:45;98963.41;;;1.59;78.68
72428;BME280;60419;48.880;18.036;2023-04-07T07:50:30;98957.25;;;1.80;78.75
72428;BME280;60419;48.880;18.036;2023-04-07T07:53:16;98967.88;;;1.53;79.36
72428;BME280;60419;48.880;18.036;2023-04-07T07:56:01;98963.16;;;1.38;80.15
72428;BME280;60419;48.880;18.036;2023-04-07T07:58:47;98972.50;;;1.63;79.49
72428;BME280;60419;48.880;18.036;2023-04-07T08:01:32;98965.38;;;1.25;81.22
72428;BME280;60419;48.880;18.036;2023-04-07T08:04:17;98955.88;;;2.00;78.65
72428;BME280;60419;48.880;18.036;2023-04-07T08:07:03;98956.50;;;2.12;77.42
72428;BME280;60419;48.880;18.036;2023-04-07T08:09:48;98957.47;;;2.60;77.46
72428;BME280;60419;48.880;18.036;2023-04-07T08:12:34;98954.69;;;2.82;76.38
72428;BME280;60419;48.880;18.036;2023-04-07T08:15:20;98958.63;;;3.17;75.48
72428;BME280;60419;48.880;18.036;2023-04-07T08:18:05;98950.63;;;3.12;75.21
72428;BME280;60419;48.880;18.036;2023-04-07T08:20:51;98951.06;;;2.99;76.25
72428;BME280;60419;48.880;18.036;2023-04-07T08:23:36;98956.25;;;2.73;77.58
72428;BME280;60419;48.880;18.036;2023-04-07T08:26:22;98957.97;;;2.94;78.04
72428;BME280;60419;48.880;18.036;2023-04-07T08:29:07;98954.00;;;3.55;74.97
72428;BME280;60419;48.880;18.036;2023-04-07T08:31:52;98956.88;;;3.43;73.53
72428;BME280;60419;48.880;18.036;2023-04-07T08:34:38;98957.25;;;3.62;74.63
72428;BME280;60419;48.880;18.036;2023-04-07T08:37:23;98963.53;;;2.50;74.89
72428;BME280;60419;48.880;18.036;2023-04-07T08:40:09;98961.28;;;2.10;79.05
72428;BME280;60419;48.880;18.036;2023-04-07T08:42:56;98955.88;;;2.64;77.34
72428;BME280;60419;48.880;18.036;2023-04-07T08:45:45;98963.66;;;2.66;75.95
72428;BME280;60419;48.880;18.036;2023-04-07T08:48:31;98963.75;;;2.49;77.26
72428;BME280;60419;48.880;18.036;2023-04-07T08:51:26;98959.63;;;1.77;78.05
72428;BME280;60419;48.880;18.036;2023-04-07T08:54:14;98967.63;;;1.77;78.95
72428;BME280;60419;48.880;18.036;2023-04-07T08:57:01;98957.81;;;2.10;78.80
72428;BME280;60419;48.880;18.036;2023-04-07T08:59:47;98960.69;;;2.03;78.64
72428;BME280;60419;48.880;18.036;2023-04-07T09:02:37;98954.41;;;2.79;75.56
72428;BME280;60419;48.880;18.036;2023-04-07T09:05:23;98954.94;;;2.76;74.48
72428;BME280;60419;48.880;18.036;2023-04-07T09:08:09;98923.13;;;2.04;77.14
72428;BME280;60419;48.880;18.036;2023-04-07T09:10:57;98951.34;;;3.02;74.46
72428;BME280;60419;48.880;18.036;2023-04-07T09:13:43;98946.53;;;3.57;73.36
72428;BME280;60419;48.880;18.036;2023-04-07T09:16:28;98949.06;;;4.04;70.37
72428;BME280;60419;48.880;18.036;2023-04-07T09:19:15;98953.69;;;4.45;69.69
72428;BME280;60419;48.880;18.036;2023-04-07T09:22:00;98961.69;;;4.65;69.60
72428;BME280;60419;48.880;18.036;2023-04-07T09:24:46;98960.88;;;4.55;69.98
72428;BME280;60419;48.880;18.036;2023-04-07T09:27:31;98896.72;;;4.19;68.99
72428;BME280;60419;48.880;18.036;2023-04-07T09:30:17;98954.72;;;5.05;67.96
72428;BME280;60419;48.880;18.036;2023-04-07T09:33:02;98958.97;;;5.22;66.14
72428;BME280;60419;48.880;18.036;2023-04-07T09:35:51;98956.88;;;4.73;68.22
72428;BME280;60419;48.880;18.036;2023-04-07T09:38:41;98952.31;;;4.88;68.29
72428;BME280;60419;48.880;18.036;2023-04-07T09:41:27;98952.38;;;5.64;65.82
72428;BME280;60419;48.880;18.036;2023-04-07T09:44:12;98952.97;;;5.50;66.10
72428;BME280;60419;48.880;18.036;2023-04-07T09:46:58;98961.66;;;5.17;65.38
72428;BME280;60419;48.880;18.036;2023-04-07T09:49:52;98956.06;;;4.77;67.15
72428;BME280;60419;48.880;18.036;2023-04-07T09:52:51;98964.88;;;5.13;67.39
72428;BME280;60419;48.880;18.036;2023-04-07T09:55:38;98963.00;;;5.19;65.96
72428;BME280;60419;48.880;18.036;2023-04-07T09:58:25;98959.25;;;5.15;68.21
72428;BME280;60419;48.880;18.036;2023-04-07T10:01:11;98959.91;;;5.56;63.89
72428;BME280;60419;48.880;18.036;2023-04-07T10:03:57;98950.19;;;4.60;65.79
72428;BME280;60419;48.880;18.036;2023-04-07T10:06:43;98944.56;;;4.25;67.71
72428;BME280;60419;48.880;18.036;2023-04-07T10:09:30;98952.84;;;4.34;67.43
72428;BME280;60419;48.880;18.036;2023-04-07T10:12:17;98942.41;;;4.07;68.13
72428;BME280;60419;48.880;18.036;2023-04-07T10:15:03;98934.91;;;3.94;68.21
72428;BME280;60419;48.880;18.036;2023-04-07T10:17:49;98939.47;;;4.49;68.62
72428;BME280;60419;48.880;18.036;2023-04-07T10:20:38;98952.06;;;4.95;67.34
72428;BME280;60419;48.880;18.036;2023-04-07T10:26:34;98944.56;;;4.66;66.59
72428;BME280;60419;48.880;18.036;2023-04-07T10:29:22;98938.06;;;5.24;65.69
72428;BME280;60419;48.880;18.036;2023-04-07T10:32:09;98933.59;;;5.69;65.04
72428;BME280;60419;48.880;18.036;2023-04-07T10:34:56;98931.22;;;5.62;64.01
72428;BME280;60419;48.880;18.036;2023-04-07T10:38:11;98926.91;;;5.71;63.73
72428;BME280;60419;48.880;18.036;2023-04-07T10:40:57;98923.78;;;5.98;63.01
72428;BME280;60419;48.880;18.036;2023-04-07T10:43:43;98945.81;;;5.30;64.74
72428;BME280;60419;48.880;18.036;2023-04-07T10:49:29;98931.84;;;5.39;63.28
72428;BME280;60419;48.880;18.036;2023-04-07T10:52:22;98942.56;;;5.39;63.05
72428;BME280;60419;48.880;18.036;2023-04-07T10:55:27;98944.75;;;5.31;63.64
72428;BME280;60419;48.880;18.036;2023-04-07T10:58:23;98937.75;;;6.35;61.17
72428;BME280;60419;48.880;18.036;2023-04-07T11:03:56;98936.56;;;5.62;61.53
72428;BME280;60419;48.880;18.036;2023-04-07T11:06:48;98926.81;;;5.32;62.21
72428;BME280;60419;48.880;18.036;2023-04-07T11:09:33;98950.06;;;5.42;62.68
72428;BME280;60419;48.880;18.036;2023-04-07T11:12:22;98943.97;;;5.26;63.04
72428;BME280;60419;48.880;18.036;2023-04-07T11:15:20;98942.84;;;5.37;62.54
72428;BME280;60419;48.880;18.036;2023-04-07T11:18:09;98943.41;;;5.29;63.18
72428;BME280;60419;48.880;18.036;2023-04-07T11:20:56;98947.78;;;4.79;63.57
72428;BME280;60419;48.880;18.036;2023-04-07T11:23:44;98942.13;;;4.90;64.71
72428;BME280;60419;48.880;18.036;2023-04-07T11:26:36;98947.50;;;5.01;63.42
72428;BME280;60419;48.880;18.036;2023-04-07T11:29:32;98947.50;;;4.39;64.59
72428;BME280;60419;48.880;18.036;2023-04-07T11:32:22;98944.03;;;4.59;64.92
72428;BME280;60419;48.880;18.036;2023-04-07T11:35:13;98944.00;;;4.90;64.34
72428;BME280;60419;48.880;18.036;2023-04-07T11:38:02;98943.16;;;5.15;62.98
72428;BME280;60419;48.880;18.036;2023-04-07T11:40:47;98942.66;;;5.18;63.54
72428;BME280;60419;48.880;18.036;2023-04-07T11:43:33;98949.63;;;5.04;63.08
72428;BME280;60419;48.880;18.036;2023-04-07T11:46:20;98939.22;;;5.02;63.87
72428;BME280;60419;48.880;18.036;2023-04-07T11:49:15;98941.56;;;5.19;66.28
72428;BME280;60419;48.880;18.036;2023-04-07T11:52:03;98930.09;;;4.78;64.26
72428;BME280;60419;48.880;18.036;2023-04-07T11:54:49;98931.91;;;5.33;62.87
72428;BME280;60419;48.880;18.036;2023-04-07T11:57:35;98921.25;;;4.92;63.29
72428;BME280;60419;48.880;18.036;2023-04-07T12:00:22;98936.13;;;5.45;63.06
72428;BME280;60419;48.880;18.036;2023-04-07T12:03:09;98920.84;;;5.45;62.19
72428;BME280;60419;48.880;18.036;2023-04-07T12:05:56;98934.66;;;5.78;62.00
72428;BME280;60419;48.880;18.036;2023-04-07T12:08:42;98936.13;;;5.45;63.73
72428;BME280;60419;48.880;18.036;2023-04-07T12:11:28;98917.56;;;5.58;62.83
72428;BME280;60419;48.880;18.036;2023-04-07T12:14:14;98936.03;;;5.70;62.33
72428;BME280;60419;48.880;18.036;2023-04-07T12:16:59;98932.00;;;5.73;63.42
72428;BME280;60419;48.880;18.036;2023-04-07T12:19:47;98934.28;;;5.95;63.20
72428;BME280;60419;48.880;18.036;2023-04-07T12:22:32;98933.81;;;5.77;62.31
72428;BME280;60419;48.880;18.036;2023-04-07T12:25:18;98909.47;;;5.74;62.25
72428;BME280;60419;48.880;18.036;2023-04-07T12:28:03;98914.56;;;5.75;63.15
72428;BME280;60419;48.880;18.036;2023-04-07T12:30:49;98909.91;;;5.91;62.77
72428;BME280;60419;48.880;18.036;2023-04-07T12:33:34;98907.88;;;6.12;61.92
72428;BME280;60419;48.880;18.036;2023-04-07T12:36:20;98910.88;;;6.40;62.69
72428;BME280;60419;48.880;18.036;2023-04-07T12:39:05;98909.72;;;6.80;60.88
72428;BME280;60419;48.880;18.036;2023-04-07T12:41:50;98909.16;;;7.07;59.62
72428;BME280;60419;48.880;18.036;2023-04-07T12:44:37;98907.13;;;6.70;60.38
72428;BME280;60419;48.880;18.036;2023-04-07T12:47:22;98907.56;;;6.19;61.43
72428;BME280;60419;48.880;18.036;2023-04-07T12:50:08;98913.16;;;6.28;61.61
72428;BME280;60419;48.880;18.036;2023-04-07T12:52:53;98907.47;;;6.63;61.40
72428;BME280;60419;48.880;18.036;2023-04-07T12:55:39;98921.50;;;6.55;61.41
72428;BME280;60419;48.880;18.036;2023-04-07T12:58:24;98912.84;;;6.29;60.46
72428;BME280;60419;48.880;18.036;2023-04-07T13:01:10;98921.09;;;5.98;61.62
72428;BME280;60419;48.880;18.036;2023-04-07T13:03:56;98907.94;;;6.71;59.32
72428;BME280;60419;48.880;18.036;2023-04-07T13:06:41;98905.06;;;7.15;59.21
72428;BME280;60419;48.880;18.036;2023-04-07T13:09:27;98912.00;;;6.68;60.29
72428;BME280;60419;48.880;18.036;2023-04-07T13:12:13;98909.06;;;6.64;59.62
72428;BME280;60419;48.880;18.036;2023-04-07T13:14:58;98912.84;;;7.17;58.80
72428;BME280;60419;48.880;18.036;2023-04-07T13:17:43;98918.63;;;6.76;60.18
72428;BME280;60419;48.880;18.036;2023-04-07T13:20:29;98911.50;;;6.61;61.37
72428;BME280;60419;48.880;18.036;2023-04-07T13:23:14;98917.31;;;6.73;61.40
72428;BME280;60419;48.880;18.036;2023-04-07T13:26:00;98915.53;;;6.29;62.07
72428;BME280;60419;48.880;18.036;2023-04-07T13:28:45;98906.34;;;6.40;61.16
72428;BME280;60419;48.880;18.036;2023-04-07T13:31:32;98911.44;;;6.37;61.60
72428;BME280;60419;48.880;18.036;2023-04-07T13:34:17;98909.78;;;6.12;62.30
72428;BME280;60419;48.880;18.036;2023-04-07T13:37:03;98918.41;;;6.43;62.05
72428;BME280;60419;48.880;18.036;2023-04-07T13:39:48;98906.91;;;6.66;61.33
72428;BME280;60419;48.880;18.036;2023-04-07T13:42:34;98911.69;;;5.56;63.19
72428;BME280;60419;48.880;18.036;2023-04-07T13:45:19;98924.00;;;5.63;63.34
72428;BME280;60419;48.880;18.036;2023-04-07T13:48:05;98910.63;;;5.57;63.89
72428;BME280;60419;48.880;18.036;2023-04-07T13:50:50;98912.47;;;6.12;62.81
72428;BME280;60419;48.880;18.036;2023-04-07T13:53:35;98908.91;;;5.77;63.04
72428;BME280;60419;48.880;18.036;2023-04-07T13:56:21;98907.84;;;6.17;62.82
72428;BME280;60419;48.880;18.036;2023-04-07T13:59:06;98912.59;;;6.31;62.62
72428;BME280;60419;48.880;18.036;2023-04-07T14:01:52;98905.28;;;6.02;63.30
72428;BME280;60419;48.880;18.036;2023-04-07T14:04:37;98911.00;;;5.85;63.13
72428;BME280;60419;48.880;18.036;2023-04-07T14:07:23;98904.00;;;5.89;63.60
72428;BME280;60419;48.880;18.036;2023-04-07T14:10:08;98900.53;;;5.89;62.75
72428;BME280;60419;48.880;18.036;2023-04-07T14:12:54;98902.16;;;5.85;63.08
72428;BME280;60419;48.880;18.036;2023-04-07T14:15:39;98902.84;;;6.00;63.64
72428;BME280;60419;48.880;18.036;2023-04-07T14:18:24;98904.25;;;5.93;63.45
72428;BME280;60419;48.880;18.036;2023-04-07T14:21:12;98901.81;;;5.52;63.87
72428;BME280;60419;48.880;18.036;2023-04-07T14:23:57;98905.28;;;6.02;63.33
72428;BME280;60419;48.880;18.036;2023-04-07T14:26:43;98904.09;;;5.74;64.02
72428;BME280;60419;48.880;18.036;2023-04-07T14:29:29;98897.28;;;5.42;65.24
72428;BME280;60419;48.880;18.036;2023-04-07T14:32:15;98909.88;;;5.47;65.59
72428;BME280;60419;48.880;18.036;2023-04-07T14:35:01;98900.88;;;5.72;64.24
72428;BME280;60419;48.880;18.036;2023-04-07T14:37:46;98911.22;;;5.49;64.67
72428;BME280;60419;48.880;18.036;2023-04-07T14:40:32;98926.34;;;5.04;66.60
72428;BME280;60419;48.880;18.036;2023-04-07T14:43:17;98922.31;;;4.86;67.56
72428;BME280;60419;48.880;18.036;2023-04-07T14:46:02;98919.13;;;4.84;67.50
72428;BME280;60419;48.880;18.036;2023-04-07T14:48:48;98918.63;;;4.72;68.12
72428;BME280;60419;48.880;18.036;2023-04-07T14:51:36;98927.19;;;4.79;68.04
72428;BME280;60419;48.880;18.036;2023-04-07T14:54:22;98938.38;;;5.12;68.26
72428;BME280;60419;48.880;18.036;2023-04-07T14:57:08;98930.63;;;5.10;68.20
72428;BME280;60419;48.880;18.036;2023-04-07T14:59:54;98927.19;;;4.95;68.02
72428;BME280;60419;48.880;18.036;2023-04-07T15:02:40;98940.00;;;4.87;69.48